sensor_id;sensor_type;location;lat;lon;timestamp;temperature;humidity
1468;DHT22;727;48.892;9.544;2023-12-22T00:01:57;6.40;99.90
1468;DHT22;727;48.892;9.544;2023-12-22T00:04:24;6.50;99.90
1468;DHT22;727;48.892;9.544;2023-12-22T00:06:50;6.50;99.90
1468;DHT22;727;48.892;9.544;2023-12-22T00:09:18;6.40;99.90
1468;DHT22;727;48.892;9.544;2023-12-22T00:11:46;6.40;99.90
1468;DHT22;727;48.892;9.544;2023-12-22T00:14:13;6.40;99.90
1468;DHT22;727;48.892;9.544;2023-12-22T00:16:40;6.40;99.90
1468;DHT22;727;48.892;9.544;2023-12-22T00:19:06;6.40;99.90
1468;DHT22;727;48.892;9.544;2023-12-22T00:21:34;6.40;99.90
1468;DHT22;727;48.892;9.544;2023-12-22T00:24:01;6.40;99.90
1468;DHT22;727;48.892;9.544;2023-12-22T00:26:28;6.40;99.90
1468;DHT22;727;48.892;9.544;2023-12-22T00:28:56;6.40;99.90
1468;DHT22;727;48.892;9.544;2023-12-22T00:31:22;6.30;99.90
1468;DHT22;727;48.892;9.544;2023-12-22T00:33:49;5.90;99.90
1468;DHT22;727;48.892;9.544;2023-12-22T00:36:16;5.70;99.90
1468;DHT22;727;48.892;9.544;2023-12-22T00:38:44;5.60;99.90
1468;DHT22;727;48.892;9.544;2023-12-22T00:41:10;5.50;99.90
1468;DHT22;727;48.892;9.544;2023-12-22T00:43:37;5.40;99.90
1468;DHT22;727;48.892;9.544;2023-12-22T00:46:05;5.30;99.90
1468;DHT22;727;48.892;9.544;2023-12-22T00:48:32;5.20;99.90
1468;DHT22;727;48.892;9.544;2023-12-22T00:50:59;5.20;99.90
1468;DHT22;727;48.892;9.544;2023-12-22T00:53:25;5.20;99.90
1468;DHT22;727;48.892;9.544;2023-12-22T00:55:52;5.20;99.90
1468;DHT22;727;48.892;9.544;2023-12-22T00:58:19;5.20;99.90
1468;DHT22;727;48.892;9.544;2023-12-22T01:00:46;5.20;99.90
1468;DHT22;727;48.892;9.544;2023-12-22T01:03:14;5.20;99.90
1468;DHT22;727;48.892;9.544;2023-12-22T01:05:40;5.20;99.90
1468;DHT22;727;48.892;9.544;2023-12-22T01:08:07;5.30;99.90
1468;DHT22;727;48.892;9.544;2023-12-22T01:10:34;5.20;99.90
1468;DHT22;727;48.892;9.544;2023-12-22T01:13:00;5.20;99.90
1468;DHT22;727;48.892;9.544;2023-12-22T01:15:27;5.10;99.90
1468;DHT22;727;48.892;9.544;2023-12-22T01:17:54;5.10;99.90
1468;DHT22;727;48.892;9.544;2023-12-22T01:20:22;5.10;99.90
1468;DHT22;727;48.892;9.544;2023-12-22T01:22:49;5.20;99.90
1468;DHT22;727;48.892;9.544;2023-12-22T01:25:16;5.10;99.90
1468;DHT22;727;48.892;9.544;2023-12-22T01:27:43;5.00;99.90
1468;DHT22;727;48.892;9.544;2023-12-22T01:30:10;4.90;99.90
1468;DHT22;727;48.892;9.544;2023-12-22T01:32:36;4.90;99.90
1468;DHT22;727;48.892;9.544;2023-12-22T01:35:04;4.90;99.90
1468;DHT22;727;48.892;9.544;2023-12-22T01:37:36;4.90;99.90
1468;DHT22;727;48.892;9.544;2023-12-22T01:40:04;4.90;99.90
1468;DHT22;727;48.892;9.544;2023-12-22T01:42:30;4.90;99.90
1468;DHT22;727;48.892;9.544;2023-12-22T01:44:57;4.90;99.90
1468;DHT22;727;48.892;9.544;2023-12-22T01:47:24;4.90;99.90
1468;DHT22;727;48.892;9.544;2023-12-22T01:49:51;4.90;99.90
1468;DHT22;727;48.892;9.544;2023-12-22T01:52:18;4.90;99.90
1468;DHT22;727;48.892;9.544;2023-12-22T01:54:47;4.80;99.90
1468;DHT22;727;48.892;9.544;2023-12-22T01:57:15;4.90;99.90
1468;DHT22;727;48.892;9.544;2023-12-22T01:59:43;5.10;99.90
1468;DHT22;727;48.892;9.544;2023-12-22T02:02:10;5.10;99.90
1468;DHT22;727;48.892;9.544;2023-12-22T02:04:37;5.00;99.90
1468;DHT22;727;48.892;9.544;2023-12-22T02:07:04;5.00;99.90
1468;DHT22;727;48.892;9.544;2023-12-22T02:09:33;5.00;99.90
1468;DHT22;727;48.892;9.544;2023-12-22T02:12:02;5.20;99.90
1468;DHT22;727;48.892;9.544;2023-12-22T02:14:29;5.40;99.90
1468;DHT22;727;48.892;9.544;2023-12-22T02:17:05;5.40;99.90
1468;DHT22;727;48.892;9.544;2023-12-22T02:19:41;5.30;99.90
1468;DHT22;727;48.892;9.544;2023-12-22T02:22:10;5.30;99.90
1468;DHT22;727;48.892;9.544;2023-12-22T02:24:39;5.30;99.90
1468;DHT22;727;48.892;9.544;2023-12-22T02:27:14;5.40;99.90
1468;DHT22;727;48.892;9.544;2023-12-22T02:29:46;5.50;99.90
1468;DHT22;727;48.892;9.544;2023-12-22T02:32:29;5.70;99.90
1468;DHT22;727;48.892;9.544;2023-12-22T02:34:56;5.70;99.90
1468;DHT22;727;48.892;9.544;2023-12-22T02:37:24;5.60;99.90
1468;DHT22;727;48.892;9.544;2023-12-22T02:39:54;5.60;99.90
1468;DHT22;727;48.892;9.544;2023-12-22T02:42:21;5.80;99.90
1468;DHT22;727;48.892;9.544;2023-12-22T02:44:55;6.00;99.90
1468;DHT22;727;48.892;9.544;2023-12-22T02:47:22;6.00;99.90
1468;DHT22;727;48.892;9.544;2023-12-22T02:49:49;6.10;99.90
1468;DHT22;727;48.892;9.544;2023-12-22T02:52:16;6.20;99.90
1468;DHT22;727;48.892;9.544;2023-12-22T02:54:42;6.30;99.90
1468;DHT22;727;48.892;9.544;2023-12-22T02:57:10;6.40;99.90
1468;DHT22;727;48.892;9.544;2023-12-22T02:59:37;6.40;99.90
1468;DHT22;727;48.892;9.544;2023-12-22T03:02:04;6.40;99.90
1468;DHT22;727;48.892;9.544;2023-12-22T03:04:31;6.50;99.90
1468;DHT22;727;48.892;9.544;2023-12-22T03:06:57;6.50;99.90
1468;DHT22;727;48.892;9.544;2023-12-22T03:09:24;6.70;99.90
1468;DHT22;727;48.892;9.544;2023-12-22T03:11:51;6.70;99.90
1468;DHT22;727;48.892;9.544;2023-12-22T03:14:21;6.70;99.90
1468;DHT22;727;48.892;9.544;2023-12-22T03:16:48;6.70;99.90
1468;DHT22;727;48.892;9.544;2023-12-22T03:19:14;6.80;99.90
1468;DHT22;727;48.892;9.544;2023-12-22T03:21:41;6.90;99.90
1468;DHT22;727;48.892;9.544;2023-12-22T03:24:08;6.90;99.90
1468;DHT22;727;48.892;9.544;2023-12-22T03:26:35;7.00;99.90
1468;DHT22;727;48.892;9.544;2023-12-22T03:29:01;7.00;99.90
1468;DHT22;727;48.892;9.544;2023-12-22T03:31:29;7.00;99.90
1468;DHT22;727;48.892;9.544;2023-12-22T03:33:56;7.10;99.90
1468;DHT22;727;48.892;9.544;2023-12-22T03:36:23;7.20;99.90
1468;DHT22;727;48.892;9.544;2023-12-22T03:38:50;7.20;99.90
1468;DHT22;727;48.892;9.544;2023-12-22T03:41:16;7.20;99.90
1468;DHT22;727;48.892;9.544;2023-12-22T03:43:43;7.20;99.90
1468;DHT22;727;48.892;9.544;2023-12-22T03:46:10;7.40;99.90
1468;DHT22;727;48.892;9.544;2023-12-22T03:48:38;7.40;99.90
1468;DHT22;727;48.892;9.544;2023-12-22T03:51:05;7.50;99.90
1468;DHT22;727;48.892;9.544;2023-12-22T03:53:31;7.50;99.90
1468;DHT22;727;48.892;9.544;2023-12-22T03:55:58;7.50;99.90
1468;DHT22;727;48.892;9.544;2023-12-22T03:58:25;7.50;99.90
1468;DHT22;727;48.892;9.544;2023-12-22T04:00:52;7.50;99.90
1468;DHT22;727;48.892;9.544;2023-12-22T04:03:19;7.50;99.90
1468;DHT22;727;48.892;9.544;2023-12-22T04:05:47;7.50;99.90
1468;DHT22;727;48.892;9.544;2023-12-22T04:08:14;7.50;99.90
1468;DHT22;727;48.892;9.544;2023-12-22T04:10:40;7.60;99.90
1468;DHT22;727;48.892;9.544;2023-12-22T04:13:09;7.70;99.90
1468;DHT22;727;48.892;9.544;2023-12-22T04:15:35;7.70;99.90
1468;DHT22;727;48.892;9.544;2023-12-22T04:18:03;7.70;99.90
1468;DHT22;727;48.892;9.544;2023-12-22T04:20:29;7.70;99.90
1468;DHT22;727;48.892;9.544;2023-12-22T04:22:58;7.70;99.90
1468;DHT22;727;48.892;9.544;2023-12-22T04:25:25;7.80;99.90
1468;DHT22;727;48.892;9.544;2023-12-22T04:27:52;7.70;99.90
1468;DHT22;727;48.892;9.544;2023-12-22T04:30:18;7.60;99.90
1468;DHT22;727;48.892;9.544;2023-12-22T04:32:45;7.50;99.90
1468;DHT22;727;48.892;9.544;2023-12-22T04:35:12;7.30;99.90
1468;DHT22;727;48.892;9.544;2023-12-22T04:37:39;7.20;99.90
1468;DHT22;727;48.892;9.544;2023-12-22T04:40:08;7.10;99.90
1468;DHT22;727;48.892;9.544;2023-12-22T04:42:35;7.00;99.90
1468;DHT22;727;48.892;9.544;2023-12-22T04:45:01;6.80;99.90
1468;DHT22;727;48.892;9.544;2023-12-22T04:47:28;6.80;99.90
1468;DHT22;727;48.892;9.544;2023-12-22T04:49:55;6.80;99.90
1468;DHT22;727;48.892;9.544;2023-12-22T04:52:22;6.70;99.90
1468;DHT22;727;48.892;9.544;2023-12-22T04:54:48;6.70;99.90
1468;DHT22;727;48.892;9.544;2023-12-22T04:57:16;6.70;99.90
1468;DHT22;727;48.892;9.544;2023-12-22T04:59:43;6.70;99.90
1468;DHT22;727;48.892;9.544;2023-12-22T05:02:10;6.70;99.90
1468;DHT22;727;48.892;9.544;2023-12-22T05:04:37;6.70;99.90
1468;DHT22;727;48.892;9.544;2023-12-22T05:07:04;6.70;99.90
1468;DHT22;727;48.892;9.544;2023-12-22T05:09:32;6.80;99.90
1468;DHT22;727;48.892;9.544;2023-12-22T05:11:59;6.90;99.90
1468;DHT22;727;48.892;9.544;2023-12-22T05:14:27;7.00;99.90
1468;DHT22;727;48.892;9.544;2023-12-22T05:16:54;7.10;99.90
1468;DHT22;727;48.892;9.544;2023-12-22T05:19:22;7.10;99.90
1468;DHT22;727;48.892;9.544;2023-12-22T05:21:49;7.10;99.90
1468;DHT22;727;48.892;9.544;2023-12-22T05:24:18;7.10;99.90
1468;DHT22;727;48.892;9.544;2023-12-22T05:26:44;7.10;99.90
1468;DHT22;727;48.892;9.544;2023-12-22T05:29:11;7.20;99.90
1468;DHT22;727;48.892;9.544;2023-12-22T05:31:40;7.20;99.90
1468;DHT22;727;48.892;9.544;2023-12-22T05:34:06;7.20;99.90
1468;DHT22;727;48.892;9.544;2023-12-22T05:36:33;7.30;99.90
1468;DHT22;727;48.892;9.544;2023-12-22T05:39:00;7.30;99.90
1468;DHT22;727;48.892;9.544;2023-12-22T05:41:27;7.30;99.90
1468;DHT22;727;48.892;9.544;2023-12-22T05:43:54;7.30;99.90
1468;DHT22;727;48.892;9.544;2023-12-22T05:46:20;7.30;99.90
1468;DHT22;727;48.892;9.544;2023-12-22T05:48:49;7.40;99.90
1468;DHT22;727;48.892;9.544;2023-12-22T05:51:15;7.40;99.90
1468;DHT22;727;48.892;9.544;2023-12-22T05:53:42;7.40;99.90
1468;DHT22;727;48.892;9.544;2023-12-22T05:56:19;7.30;99.90
1468;DHT22;727;48.892;9.544;2023-12-22T05:58:46;7.10;99.90
1468;DHT22;727;48.892;9.544;2023-12-22T06:01:16;6.90;99.90
1468;DHT22;727;48.892;9.544;2023-12-22T06:03:43;6.80;99.90
1468;DHT22;727;48.892;9.544;2023-12-22T06:06:12;6.70;99.90
1468;DHT22;727;48.892;9.544;2023-12-22T06:08:39;6.70;99.90
1468;DHT22;727;48.892;9.544;2023-12-22T06:11:06;6.60;99.90
1468;DHT22;727;48.892;9.544;2023-12-22T06:13:33;6.70;99.90
1468;DHT22;727;48.892;9.544;2023-12-22T06:16:02;6.80;99.90
1468;DHT22;727;48.892;9.544;2023-12-22T06:18:29;6.90;99.90
1468;DHT22;727;48.892;9.544;2023-12-22T06:20:56;7.00;99.90
1468;DHT22;727;48.892;9.544;2023-12-22T06:23:24;7.20;99.90
1468;DHT22;727;48.892;9.544;2023-12-22T06:25:51;7.30;99.90
1468;DHT22;727;48.892;9.544;2023-12-22T06:28:18;7.40;99.90
1468;DHT22;727;48.892;9.544;2023-12-22T06:30:45;7.40;99.90
1468;DHT22;727;48.892;9.544;2023-12-22T06:33:13;7.50;99.90
1468;DHT22;727;48.892;9.544;2023-12-22T06:35:40;7.50;99.90
1468;DHT22;727;48.892;9.544;2023-12-22T06:38:07;7.60;99.90
1468;DHT22;727;48.892;9.544;2023-12-22T06:40:38;7.60;99.90
1468;DHT22;727;48.892;9.544;2023-12-22T06:43:04;7.60;99.90
1468;DHT22;727;48.892;9.544;2023-12-22T06:45:31;7.60;99.90
1468;DHT22;727;48.892;9.544;2023-12-22T06:47:58;7.60;99.90
1468;DHT22;727;48.892;9.544;2023-12-22T06:50:25;7.70;99.90
1468;DHT22;727;48.892;9.544;2023-12-22T06:52:52;7.60;99.90
1468;DHT22;727;48.892;9.544;2023-12-22T06:55:18;7.70;99.90
1468;DHT22;727;48.892;9.544;2023-12-22T06:57:46;7.70;99.90
1468;DHT22;727;48.892;9.544;2023-12-22T07:00:14;7.60;99.90
1468;DHT22;727;48.892;9.544;2023-12-22T07:02:41;7.60;99.90
1468;DHT22;727;48.892;9.544;2023-12-22T07:05:33;7.50;99.90
1468;DHT22;727;48.892;9.544;2023-12-22T07:08:05;7.50;99.90
1468;DHT22;727;48.892;9.544;2023-12-22T07:10:32;7.50;99.90
1468;DHT22;727;48.892;9.544;2023-12-22T07:13:00;7.60;99.90
1468;DHT22;727;48.892;9.544;2023-12-22T07:15:27;7.60;99.90
1468;DHT22;727;48.892;9.544;2023-12-22T07:17:54;7.80;99.90
1468;DHT22;727;48.892;9.544;2023-12-22T07:20:21;7.70;99.90
1468;DHT22;727;48.892;9.544;2023-12-22T07:22:48;7.80;99.90
1468;DHT22;727;48.892;9.544;2023-12-22T07:25:15;7.80;99.90
1468;DHT22;727;48.892;9.544;2023-12-22T07:27:44;7.80;99.90
1468;DHT22;727;48.892;9.544;2023-12-22T07:30:13;7.90;99.90
1468;DHT22;727;48.892;9.544;2023-12-22T07:32:45;7.90;99.90
1468;DHT22;727;48.892;9.544;2023-12-22T07:35:14;7.90;99.90
1468;DHT22;727;48.892;9.544;2023-12-22T07:37:41;7.90;99.90
1468;DHT22;727;48.892;9.544;2023-12-22T07:40:09;7.90;99.90
1468;DHT22;727;48.892;9.544;2023-12-22T07:42:36;7.90;99.90
1468;DHT22;727;48.892;9.544;2023-12-22T07:45:04;7.90;99.90
1468;DHT22;727;48.892;9.544;2023-12-22T07:47:33;8.00;99.90
1468;DHT22;727;48.892;9.544;2023-12-22T07:50:00;7.90;99.90
1468;DHT22;727;48.892;9.544;2023-12-22T07:52:27;7.90;99.90
1468;DHT22;727;48.892;9.544;2023-12-22T07:54:53;7.90;99.90
1468;DHT22;727;48.892;9.544;2023-12-22T07:57:20;7.90;99.90
1468;DHT22;727;48.892;9.544;2023-12-22T07:59:47;7.90;99.90
1468;DHT22;727;48.892;9.544;2023-12-22T08:02:13;7.90;99.90
1468;DHT22;727;48.892;9.544;2023-12-22T08:04:41;7.90;99.90
1468;DHT22;727;48.892;9.544;2023-12-22T08:07:08;7.90;99.90
1468;DHT22;727;48.892;9.544;2023-12-22T08:09:35;7.90;99.90
1468;DHT22;727;48.892;9.544;2023-12-22T08:12:01;8.00;99.90
1468;DHT22;727;48.892;9.544;2023-12-22T08:14:27;8.00;99.90
1468;DHT22;727;48.892;9.544;2023-12-22T08:16:54;8.00;99.90
1468;DHT22;727;48.892;9.544;2023-12-22T08:19:21;8.00;99.90
1468;DHT22;727;48.892;9.544;2023-12-22T08:21:49;8.00;99.90
1468;DHT22;727;48.892;9.544;2023-12-22T08:24:15;8.00;99.90
1468;DHT22;727;48.892;9.544;2023-12-22T08:26:42;8.00;99.90
1468;DHT22;727;48.892;9.544;2023-12-22T08:29:09;8.00;99.90
1468;DHT22;727;48.892;9.544;2023-12-22T08:31:36;7.90;99.90
1468;DHT22;727;48.892;9.544;2023-12-22T08:34:03;7.80;99.90
1468;DHT22;727;48.892;9.544;2023-12-22T08:36:30;7.70;99.90
1468;DHT22;727;48.892;9.544;2023-12-22T08:38:58;7.60;99.90
1468;DHT22;727;48.892;9.544;2023-12-22T08:41:25;7.50;99.90
1468;DHT22;727;48.892;9.544;2023-12-22T08:43:52;7.50;99.90
1468;DHT22;727;48.892;9.544;2023-12-22T08:46:19;7.40;99.90
1468;DHT22;727;48.892;9.544;2023-12-22T08:48:46;7.40;99.90
1468;DHT22;727;48.892;9.544;2023-12-22T08:51:12;7.40;99.90
1468;DHT22;727;48.892;9.544;2023-12-22T08:53:39;7.40;99.90
1468;DHT22;727;48.892;9.544;2023-12-22T08:56:07;7.40;99.90
1468;DHT22;727;48.892;9.544;2023-12-22T08:58:34;7.50;99.90
1468;DHT22;727;48.892;9.544;2023-12-22T09:01:01;7.50;99.90
1468;DHT22;727;48.892;9.544;2023-12-22T09:03:28;7.50;99.90
1468;DHT22;727;48.892;9.544;2023-12-22T09:05:55;7.40;99.90
1468;DHT22;727;48.892;9.544;2023-12-22T09:08:22;7.40;99.90
1468;DHT22;727;48.892;9.544;2023-12-22T09:10:49;7.50;99.90
1468;DHT22;727;48.892;9.544;2023-12-22T09:13:17;7.50;99.90
1468;DHT22;727;48.892;9.544;2023-12-22T09:15:44;7.50;99.90
1468;DHT22;727;48.892;9.544;2023-12-22T09:18:12;7.50;99.90
1468;DHT22;727;48.892;9.544;2023-12-22T09:20:39;7.50;99.90
1468;DHT22;727;48.892;9.544;2023-12-22T09:23:06;7.50;99.90
1468;DHT22;727;48.892;9.544;2023-12-22T09:25:33;7.50;99.90
1468;DHT22;727;48.892;9.544;2023-12-22T09:28:00;7.50;99.90
1468;DHT22;727;48.892;9.544;2023-12-22T09:30:28;7.50;99.90
1468;DHT22;727;48.892;9.544;2023-12-22T09:32:55;7.50;99.90
1468;DHT22;727;48.892;9.544;2023-12-22T09:35:21;7.40;99.90
1468;DHT22;727;48.892;9.544;2023-12-22T09:37:50;7.30;99.90
1468;DHT22;727;48.892;9.544;2023-12-22T09:40:17;7.30;99.90
1468;DHT22;727;48.892;9.544;2023-12-22T09:42:44;7.40;99.90
1468;DHT22;727;48.892;9.544;2023-12-22T09:45:12;7.40;99.90
1468;DHT22;727;48.892;9.544;2023-12-22T09:47:41;7.50;99.90
1468;DHT22;727;48.892;9.544;2023-12-22T09:50:09;7.60;99.90
1468;DHT22;727;48.892;9.544;2023-12-22T09:52:36;7.60;99.90
1468;DHT22;727;48.892;9.544;2023-12-22T09:55:04;7.70;99.90
1468;DHT22;727;48.892;9.544;2023-12-22T09:57:34;7.70;99.90
1468;DHT22;727;48.892;9.544;2023-12-22T10:00:02;7.80;99.90
1468;DHT22;727;48.892;9.544;2023-12-22T10:02:33;7.80;99.90
1468;DHT22;727;48.892;9.544;2023-12-22T10:05:01;7.80;99.90
1468;DHT22;727;48.892;9.544;2023-12-22T10:07:30;7.90;99.90
1468;DHT22;727;48.892;9.544;2023-12-22T10:09:59;7.90;99.90
1468;DHT22;727;48.892;9.544;2023-12-22T10:12:29;7.90;99.90
1468;DHT22;727;48.892;9.544;2023-12-22T10:14:58;7.90;99.90
1468;DHT22;727;48.892;9.544;2023-12-22T10:17:25;8.00;99.90
1468;DHT22;727;48.892;9.544;2023-12-22T10:19:52;8.00;99.90
1468;DHT22;727;48.892;9.544;2023-12-22T10:22:20;8.00;99.90
1468;DHT22;727;48.892;9.544;2023-12-22T10:24:49;8.00;99.90
1468;DHT22;727;48.892;9.544;2023-12-22T10:27:18;8.10;99.90
1468;DHT22;727;48.892;9.544;2023-12-22T10:29:48;8.10;99.90
1468;DHT22;727;48.892;9.544;2023-12-22T10:32:14;8.10;99.90
1468;DHT22;727;48.892;9.544;2023-12-22T10:34:41;8.10;99.90
1468;DHT22;727;48.892;9.544;2023-12-22T10:37:09;8.10;99.90
1468;DHT22;727;48.892;9.544;2023-12-22T10:39:37;8.20;99.90
1468;DHT22;727;48.892;9.544;2023-12-22T10:42:05;8.20;99.90
1468;DHT22;727;48.892;9.544;2023-12-22T10:44:32;8.20;99.90
1468;DHT22;727;48.892;9.544;2023-12-22T10:47:00;8.20;99.90
1468;DHT22;727;48.892;9.544;2023-12-22T10:49:28;8.30;99.90
1468;DHT22;727;48.892;9.544;2023-12-22T10:51:55;8.30;99.90
1468;DHT22;727;48.892;9.544;2023-12-22T10:54:21;8.30;99.90
1468;DHT22;727;48.892;9.544;2023-12-22T10:56:50;8.30;99.90
1468;DHT22;727;48.892;9.544;2023-12-22T10:59:18;8.30;99.90
1468;DHT22;727;48.892;9.544;2023-12-22T11:01:48;8.20;99.90
1468;DHT22;727;48.892;9.544;2023-12-22T11:04:20;8.30;99.90
1468;DHT22;727;48.892;9.544;2023-12-22T11:06:49;8.30;99.90
1468;DHT22;727;48.892;9.544;2023-12-22T11:09:21;8.30;99.90
1468;DHT22;727;48.892;9.544;2023-12-22T11:11:52;8.30;99.90
1468;DHT22;727;48.892;9.544;2023-12-22T11:14:19;8.30;99.90
1468;DHT22;727;48.892;9.544;2023-12-22T11:16:47;8.30;99.90
1468;DHT22;727;48.892;9.544;2023-12-22T11:19:14;8.40;99.90
1468;DHT22;727;48.892;9.544;2023-12-22T11:21:43;8.40;99.90
1468;DHT22;727;48.892;9.544;2023-12-22T11:24:11;8.40;99.90
1468;DHT22;727;48.892;9.544;2023-12-22T11:26:41;8.40;99.90
1468;DHT22;727;48.892;9.544;2023-12-22T11:29:14;8.40;99.90
1468;DHT22;727;48.892;9.544;2023-12-22T11:31:45;8.40;99.90
1468;DHT22;727;48.892;9.544;2023-12-22T11:34:14;8.50;99.90
1468;DHT22;727;48.892;9.544;2023-12-22T11:36:45;8.50;99.90
1468;DHT22;727;48.892;9.544;2023-12-22T11:39:13;8.50;99.90
1468;DHT22;727;48.892;9.544;2023-12-22T11:41:41;8.60;99.90
1468;DHT22;727;48.892;9.544;2023-12-22T11:44:08;8.60;99.90
1468;DHT22;727;48.892;9.544;2023-12-22T11:46:40;8.50;99.90
1468;DHT22;727;48.892;9.544;2023-12-22T11:49:07;8.60;99.90
1468;DHT22;727;48.892;9.544;2023-12-22T11:51:35;8.60;99.90
1468;DHT22;727;48.892;9.544;2023-12-22T11:54:02;8.60;99.90
1468;DHT22;727;48.892;9.544;2023-12-22T11:56:29;8.60;99.90
1468;DHT22;727;48.892;9.544;2023-12-22T11:58:56;8.60;99.90
1468;DHT22;727;48.892;9.544;2023-12-22T12:01:25;8.60;99.90
1468;DHT22;727;48.892;9.544;2023-12-22T12:03:56;8.60;99.90
1468;DHT22;727;48.892;9.544;2023-12-22T12:06:32;8.70;99.90
1468;DHT22;727;48.892;9.544;2023-12-22T12:09:00;8.60;99.90
1468;DHT22;727;48.892;9.544;2023-12-22T12:14:31;8.70;99.90
1468;DHT22;727;48.892;9.544;2023-12-22T12:17:05;8.60;99.90
1468;DHT22;727;48.892;9.544;2023-12-22T12:19:35;8.60;99.90
1468;DHT22;727;48.892;9.544;2023-12-22T12:22:03;8.60;99.90
1468;DHT22;727;48.892;9.544;2023-12-22T12:24:30;8.60;99.90
1468;DHT22;727;48.892;9.544;2023-12-22T12:26:57;8.60;99.90
1468;DHT22;727;48.892;9.544;2023-12-22T12:29:24;8.60;99.90
1468;DHT22;727;48.892;9.544;2023-12-22T12:31:51;8.50;99.90
1468;DHT22;727;48.892;9.544;2023-12-22T12:34:18;8.60;99.90
1468;DHT22;727;48.892;9.544;2023-12-22T12:36:48;8.50;99.90
1468;DHT22;727;48.892;9.544;2023-12-22T12:39:16;8.60;99.90
1468;DHT22;727;48.892;9.544;2023-12-22T12:41:48;8.50;99.90
1468;DHT22;727;48.892;9.544;2023-12-22T12:44:19;8.50;99.90
1468;DHT22;727;48.892;9.544;2023-12-22T12:46:46;8.50;99.90
1468;DHT22;727;48.892;9.544;2023-12-22T12:49:13;8.50;99.90
1468;DHT22;727;48.892;9.544;2023-12-22T12:51:42;8.50;99.90
1468;DHT22;727;48.892;9.544;2023-12-22T12:54:11;8.40;99.90
1468;DHT22;727;48.892;9.544;2023-12-22T12:56:39;8.40;99.90
1468;DHT22;727;48.892;9.544;2023-12-22T12:59:07;8.30;99.90
1468;DHT22;727;48.892;9.544;2023-12-22T13:01:37;8.30;99.90
1468;DHT22;727;48.892;9.544;2023-12-22T13:04:04;8.30;99.90
1468;DHT22;727;48.892;9.544;2023-12-22T13:06:31;8.30;99.90
1468;DHT22;727;48.892;9.544;2023-12-22T13:08:58;8.30;99.90
1468;DHT22;727;48.892;9.544;2023-12-22T13:11:29;8.30;99.90
1468;DHT22;727;48.892;9.544;2023-12-22T13:13:56;8.30;99.90
1468;DHT22;727;48.892;9.544;2023-12-22T13:16:24;8.30;99.90
1468;DHT22;727;48.892;9.544;2023-12-22T13:18:52;8.30;99.90
1468;DHT22;727;48.892;9.544;2023-12-22T13:21:19;8.30;99.90
1468;DHT22;727;48.892;9.544;2023-12-22T13:23:46;8.20;99.90
1468;DHT22;727;48.892;9.544;2023-12-22T13:26:19;8.30;99.90
1468;DHT22;727;48.892;9.544;2023-12-22T13:28:48;8.30;99.90
1468;DHT22;727;48.892;9.544;2023-12-22T13:31:15;8.30;99.90
1468;DHT22;727;48.892;9.544;2023-12-22T13:33:43;8.30;99.90
1468;DHT22;727;48.892;9.544;2023-12-22T13:36:11;8.30;99.90
1468;DHT22;727;48.892;9.544;2023-12-22T13:38:38;8.30;99.90
1468;DHT22;727;48.892;9.544;2023-12-22T13:41:11;8.40;99.90
1468;DHT22;727;48.892;9.544;2023-12-22T13:43:38;8.50;99.90
1468;DHT22;727;48.892;9.544;2023-12-22T13:46:06;8.60;99.90
1468;DHT22;727;48.892;9.544;2023-12-22T13:48:34;8.80;99.90
1468;DHT22;727;48.892;9.544;2023-12-22T13:51:01;8.80;99.90
1468;DHT22;727;48.892;9.544;2023-12-22T13:53:29;8.80;99.90
1468;DHT22;727;48.892;9.544;2023-12-22T13:55:56;8.80;99.90
1468;DHT22;727;48.892;9.544;2023-12-22T13:58:23;8.90;99.90
1468;DHT22;727;48.892;9.544;2023-12-22T14:00:50;8.90;99.90
1468;DHT22;727;48.892;9.544;2023-12-22T14:03:18;9.00;99.90
1468;DHT22;727;48.892;9.544;2023-12-22T14:05:47;9.00;99.90
1468;DHT22;727;48.892;9.544;2023-12-22T14:08:13;9.00;99.90
1468;DHT22;727;48.892;9.544;2023-12-22T14:10:44;9.10;99.90
1468;DHT22;727;48.892;9.544;2023-12-22T14:13:12;9.10;99.90
1468;DHT22;727;48.892;9.544;2023-12-22T14:15:38;9.10;99.90
1468;DHT22;727;48.892;9.544;2023-12-22T14:18:05;9.10;99.90
1468;DHT22;727;48.892;9.544;2023-12-22T14:20:33;9.20;99.90
1468;DHT22;727;48.892;9.544;2023-12-22T14:23:00;9.20;99.90
1468;DHT22;727;48.892;9.544;2023-12-22T14:25:26;9.30;99.90
1468;DHT22;727;48.892;9.544;2023-12-22T14:27:53;9.30;99.90
1468;DHT22;727;48.892;9.544;2023-12-22T14:30:22;9.30;99.90
1468;DHT22;727;48.892;9.544;2023-12-22T14:32:49;9.30;99.90
1468;DHT22;727;48.892;9.544;2023-12-22T14:35:16;9.30;99.90
1468;DHT22;727;48.892;9.544;2023-12-22T14:37:44;9.30;99.90
1468;DHT22;727;48.892;9.544;2023-12-22T14:40:12;9.30;99.90
1468;DHT22;727;48.892;9.544;2023-12-22T14:42:39;9.30;99.90
1468;DHT22;727;48.892;9.544;2023-12-22T14:45:06;9.30;99.90
1468;DHT22;727;48.892;9.544;2023-12-22T14:47:33;9.30;99.90
1468;DHT22;727;48.892;9.544;2023-12-22T14:50:01;9.30;99.90
1468;DHT22;727;48.892;9.544;2023-12-22T14:52:29;9.30;99.90
1468;DHT22;727;48.892;9.544;2023-12-22T14:54:58;9.40;99.90
1468;DHT22;727;48.892;9.544;2023-12-22T14:57:25;9.40;99.90
1468;DHT22;727;48.892;9.544;2023-12-22T14:59:54;9.40;99.90
1468;DHT22;727;48.892;9.544;2023-12-22T15:02:22;9.40;99.90
1468;DHT22;727;48.892;9.544;2023-12-22T15:04:48;9.50;99.90
1468;DHT22;727;48.892;9.544;2023-12-22T15:07:16;9.50;99.90
1468;DHT22;727;48.892;9.544;2023-12-22T15:09:43;9.50;99.90
1468;DHT22;727;48.892;9.544;2023-12-22T15:12:11;9.60;99.90
1468;DHT22;727;48.892;9.544;2023-12-22T15:14:43;9.50;99.90
1468;DHT22;727;48.892;9.544;2023-12-22T15:17:10;9.50;99.90
1468;DHT22;727;48.892;9.544;2023-12-22T15:19:40;9.60;99.90
1468;DHT22;727;48.892;9.544;2023-12-22T15:22:07;9.50;99.90
1468;DHT22;727;48.892;9.544;2023-12-22T15:24:36;9.50;99.90
1468;DHT22;727;48.892;9.544;2023-12-22T15:27:05;9.60;99.90
1468;DHT22;727;48.892;9.544;2023-12-22T15:29:33;9.50;99.90
1468;DHT22;727;48.892;9.544;2023-12-22T15:32:00;9.50;99.90
1468;DHT22;727;48.892;9.544;2023-12-22T15:34:27;9.50;99.90
1468;DHT22;727;48.892;9.544;2023-12-22T15:36:54;9.50;99.90
1468;DHT22;727;48.892;9.544;2023-12-22T15:39:21;9.50;99.90
1468;DHT22;727;48.892;9.544;2023-12-22T15:41:48;9.50;99.90
1468;DHT22;727;48.892;9.544;2023-12-22T15:44:15;9.50;99.90
1468;DHT22;727;48.892;9.544;2023-12-22T15:46:43;9.50;99.90
1468;DHT22;727;48.892;9.544;2023-12-22T15:49:10;9.60;99.90
1468;DHT22;727;48.892;9.544;2023-12-22T15:51:37;9.60;99.90
1468;DHT22;727;48.892;9.544;2023-12-22T15:54:04;9.60;99.90
1468;DHT22;727;48.892;9.544;2023-12-22T15:56:31;9.60;99.90
1468;DHT22;727;48.892;9.544;2023-12-22T15:58:57;9.60;99.90
1468;DHT22;727;48.892;9.544;2023-12-22T16:01:24;9.60;99.90
1468;DHT22;727;48.892;9.544;2023-12-22T16:03:52;9.60;99.90
1468;DHT22;727;48.892;9.544;2023-12-22T16:06:19;9.60;99.90
1468;DHT22;727;48.892;9.544;2023-12-22T16:08:47;9.60;99.90
1468;DHT22;727;48.892;9.544;2023-12-22T16:11:14;9.60;99.90
1468;DHT22;727;48.892;9.544;2023-12-22T16:13:40;9.60;99.90
1468;DHT22;727;48.892;9.544;2023-12-22T16:16:07;9.60;99.90
1468;DHT22;727;48.892;9.544;2023-12-22T16:18:39;9.60;99.90
1468;DHT22;727;48.892;9.544;2023-12-22T16:21:07;9.70;99.90
1468;DHT22;727;48.892;9.544;2023-12-22T16:23:34;9.70;99.90
1468;DHT22;727;48.892;9.544;2023-12-22T16:26:00;9.70;99.90
1468;DHT22;727;48.892;9.544;2023-12-22T16:28:29;9.60;99.90
1468;DHT22;727;48.892;9.544;2023-12-22T16:30:56;9.70;99.90
1468;DHT22;727;48.892;9.544;2023-12-22T16:33:23;9.60;99.90
1468;DHT22;727;48.892;9.544;2023-12-22T16:35:49;9.70;99.90
1468;DHT22;727;48.892;9.544;2023-12-22T16:38:17;9.70;99.90
1468;DHT22;727;48.892;9.544;2023-12-22T16:40:44;9.70;99.90